createdAt,value
2023-12-20T00:02:04.005Z,6.20
2023-12-20T00:04:33.860Z,5.22
2023-12-20T00:07:03.605Z,5.90
2023-12-20T00:09:35.884Z,6.03
2023-12-20T00:12:05.620Z,5.57
2023-12-20T00:14:35.358Z,6.20
2023-12-20T00:17:05.045Z,5.80
2023-12-20T00:19:34.761Z,5.63
2023-12-20T00:22:04.443Z,5.40
2023-12-20T00:24:36.651Z,6.07
2023-12-20T00:27:06.475Z,5.65
2023-12-20T00:29:36.084Z,5.95
2023-12-20T00:32:05.807Z,5.75
2023-12-20T00:34:35.416Z,5.05
2023-12-20T00:37:05.126Z,5.90
2023-12-20T00:39:37.415Z,6.00
2023-12-20T00:42:07.346Z,5.43
2023-12-20T00:44:36.997Z,5.05
2023-12-20T00:47:07.438Z,5.75
2023-12-20T00:49:37.073Z,5.32
2023-12-20T00:52:06.872Z,5.18
2023-12-20T00:54:39.196Z,5.35
2023-12-20T00:57:09.127Z,5.22
2023-12-20T00:59:38.818Z,5.35
2023-12-20T01:02:08.667Z,4.72
2023-12-20T01:04:38.532Z,5.22
2023-12-20T01:07:08.285Z,4.40
2023-12-20T01:09:40.602Z,4.78
2023-12-20T01:12:10.335Z,4.60
2023-12-20T01:14:40.835Z,3.95
2023-12-20T01:17:10.999Z,4.20
2023-12-20T01:19:40.812Z,3.92
2023-12-20T01:22:10.573Z,3.47
2023-12-20T01:24:43.945Z,3.35
2023-12-20T01:27:13.678Z,4.00
2023-12-20T01:29:43.290Z,3.50
2023-12-20T01:32:13.053Z,3.30
2023-12-20T01:34:42.800Z,3.15
2023-12-20T01:37:12.605Z,3.63
2023-12-20T01:39:44.953Z,3.17
2023-12-20T01:42:14.721Z,2.95
2023-12-20T01:44:44.333Z,3.03
2023-12-20T01:47:14.054Z,3.13
2023-12-20T01:49:43.966Z,2.83
2023-12-20T01:52:13.829Z,3.43
2023-12-20T01:54:46.692Z,2.95
2023-12-20T01:57:16.990Z,2.78
2023-12-20T01:59:47.497Z,2.60
2023-12-20T02:02:17.386Z,2.42
2023-12-20T02:04:47.306Z,2.53
2023-12-20T02:07:17.207Z,2.10
2023-12-20T02:09:49.592Z,2.20
2023-12-20T02:12:19.438Z,1.63
2023-12-20T02:14:49.038Z,1.77
2023-12-20T02:17:18.904Z,2.20
2023-12-20T02:19:48.920Z,1.65
2023-12-20T02:22:21.506Z,2.08
2023-12-20T02:24:51.319Z,2.05
2023-12-20T02:27:23.072Z,2.10
2023-12-20T02:29:53.842Z,1.80
2023-12-20T02:32:24.359Z,1.63
2023-12-20T02:34:54.074Z,1.55
2023-12-20T02:37:26.465Z,1.73
2023-12-20T02:39:56.246Z,1.38
2023-12-20T02:42:25.873Z,1.70
2023-12-20T02:44:55.523Z,1.27
2023-12-20T02:47:25.106Z,1.40
2023-12-20T02:49:54.903Z,1.55
2023-12-20T02:52:27.499Z,1.48
2023-12-20T02:54:57.215Z,1.77
2023-12-20T02:57:26.772Z,1.30
2023-12-20T02:59:56.418Z,1.50
2023-12-20T03:02:26.182Z,1.30
2023-12-20T03:04:56.262Z,1.38
2023-12-20T03:07:29.104Z,1.45
2023-12-20T03:10:11.628Z,1.15
2023-12-20T03:12:48.585Z,0.90
2023-12-20T03:15:18.378Z,1.30
2023-12-20T03:17:48.241Z,1.30
2023-12-20T03:20:18.070Z,0.93
2023-12-20T03:22:50.286Z,1.30
2023-12-20T03:25:19.956Z,1.33
2023-12-20T03:27:49.816Z,1.30
2023-12-20T03:30:19.676Z,1.40
2023-12-20T03:32:49.612Z,0.93
2023-12-20T03:35:19.243Z,1.27
2023-12-20T03:37:51.500Z,1.30
2023-12-20T03:40:21.200Z,1.00
2023-12-20T03:42:50.898Z,1.13
2023-12-20T03:45:20.613Z,0.93
2023-12-20T03:47:51.246Z,1.23
2023-12-20T03:50:21.142Z,1.35
2023-12-20T03:52:53.577Z,1.35
2023-12-20T03:55:23.449Z,1.37
2023-12-20T03:57:53.146Z,1.00
2023-12-20T04:00:22.857Z,1.40
2023-12-20T04:02:52.489Z,1.27
2023-12-20T04:05:22.358Z,0.80
2023-12-20T04:07:54.788Z,0.90
2023-12-20T04:10:24.647Z,0.85
2023-12-20T04:12:54.314Z,0.88
2023-12-20T04:15:23.908Z,0.98
2023-12-20T04:17:53.822Z,1.08
2023-12-20T04:20:23.465Z,1.27
2023-12-20T04:22:55.780Z,0.60
2023-12-20T04:25:25.452Z,1.02
2023-12-20T04:27:55.115Z,1.33
2023-12-20T04:30:24.804Z,1.10
2023-12-20T04:32:54.414Z,1.05
2023-12-20T04:35:24.125Z,0.90
2023-12-20T04:37:56.392Z,1.10
2023-12-20T04:40:26.100Z,0.80
2023-12-20T04:42:55.829Z,1.10
2023-12-20T04:45:26.227Z,1.08
2023-12-20T04:47:55.880Z,1.10
2023-12-20T04:50:25.601Z,0.80
2023-12-20T04:52:57.829Z,0.88
2023-12-20T04:55:27.549Z,0.95
2023-12-20T04:57:57.860Z,1.08
2023-12-20T05:00:24.910Z,0.95
2023-12-20T05:02:54.483Z,0.90
2023-12-20T05:05:24.976Z,0.90
2023-12-20T05:07:57.445Z,1.10
2023-12-20T05:10:28.520Z,1.00
2023-12-20T05:13:00.593Z,1.42
2023-12-20T05:15:30.314Z,1.05
2023-12-20T05:18:00.391Z,1.20
2023-12-20T05:20:30.074Z,1.00
2023-12-20T05:23:02.365Z,1.05
2023-12-20T05:25:32.201Z,0.85
2023-12-20T05:28:01.957Z,1.33
2023-12-20T05:30:31.621Z,1.02
2023-12-20T05:33:01.327Z,1.65
2023-12-20T05:35:31.157Z,3.05
2023-12-20T05:38:03.492Z,2.45
2023-12-20T05:40:33.135Z,1.20
2023-12-20T05:43:03.547Z,1.13
2023-12-20T05:45:33.256Z,1.50
2023-12-20T05:48:02.894Z,1.25
2023-12-20T05:50:32.550Z,1.30
2023-12-20T05:53:04.779Z,1.50
2023-12-20T05:55:34.480Z,1.27
2023-12-20T05:58:04.506Z,1.35
2023-12-20T06:00:34.248Z,1.05
2023-12-20T06:03:03.846Z,1.42
2023-12-20T06:05:33.441Z,1.00
2023-12-20T06:08:05.644Z,1.98
2023-12-20T06:10:35.394Z,2.53
2023-12-20T06:13:06.028Z,1.48
2023-12-20T06:15:36.829Z,1.40
2023-12-20T06:18:06.869Z,1.58
2023-12-20T06:20:40.307Z,1.65
2023-12-20T06:23:12.588Z,1.63
2023-12-20T06:25:42.354Z,1.50
2023-12-20T06:28:15.752Z,1.38
2023-12-20T06:30:45.704Z,1.52
2023-12-20T06:33:15.454Z,1.52
2023-12-20T06:35:45.307Z,1.52
2023-12-20T06:38:17.597Z,1.60
2023-12-20T06:40:47.486Z,1.77
2023-12-20T06:43:26.710Z,1.98
2023-12-20T06:46:07.170Z,1.85
2023-12-20T06:48:36.808Z,2.33
2023-12-20T06:51:06.504Z,2.20
2023-12-20T06:53:38.763Z,2.22
2023-12-20T06:56:08.873Z,2.15
2023-12-20T06:58:39.030Z,2.90
2023-12-20T07:01:08.857Z,2.67
2023-12-20T07:03:38.568Z,3.42
2023-12-20T07:06:08.853Z,3.38
2023-12-20T07:08:41.188Z,3.03
2023-12-20T07:11:10.979Z,3.13
2023-12-20T07:13:40.785Z,3.05
2023-12-20T07:16:10.789Z,2.58
2023-12-20T07:18:40.444Z,2.60
2023-12-20T07:21:10.121Z,2.65
2023-12-20T07:23:42.812Z,2.20
2023-12-20T07:26:12.706Z,2.42
2023-12-20T07:28:42.442Z,2.05
2023-12-20T07:31:12.188Z,2.13
2023-12-20T07:33:42.362Z,2.47
2023-12-20T07:36:13.068Z,2.25
2023-12-20T07:38:45.677Z,2.33
2023-12-20T07:41:17.162Z,2.90
2023-12-20T07:43:46.863Z,2.83
2023-12-20T07:46:16.545Z,2.78
2023-12-20T07:48:47.796Z,3.00
2023-12-20T07:51:17.677Z,2.80
2023-12-20T07:53:50.026Z,2.67
2023-12-20T07:56:19.865Z,2.58
2023-12-20T07:58:52.846Z,3.13
2023-12-20T08:01:24.123Z,3.08
2023-12-20T08:03:54.101Z,3.53
2023-12-20T08:06:24.023Z,2.80
2023-12-20T08:09:02.019Z,2.90
2023-12-20T08:11:36.336Z,3.33
2023-12-20T08:14:06.088Z,3.08
2023-12-20T08:16:35.887Z,3.40
2023-12-20T08:19:05.717Z,3.58
2023-12-20T08:21:38.336Z,3.35
2023-12-20T08:24:12.209Z,3.30
2023-12-20T08:26:41.954Z,2.95
2023-12-20T08:29:11.624Z,2.88
2023-12-20T08:31:41.360Z,2.90
2023-12-20T08:34:13.236Z,3.42
2023-12-20T08:36:43.233Z,3.17
2023-12-20T08:39:15.727Z,3.38
2023-12-20T08:41:45.545Z,3.50
2023-12-20T08:44:15.266Z,3.55
2023-12-20T08:46:45.016Z,3.40
2023-12-20T08:49:14.914Z,3.38
2023-12-20T08:51:44.976Z,3.47
2023-12-20T08:54:18.055Z,3.92
2023-12-20T08:56:47.837Z,3.78
2023-12-20T08:59:17.561Z,3.63
2023-12-20T09:01:47.863Z,3.53
2023-12-20T09:04:17.756Z,3.10
2023-12-20T09:06:47.545Z,4.53
2023-12-20T09:09:20.050Z,3.95
2023-12-20T09:11:52.533Z,3.28
2023-12-20T09:14:22.251Z,2.42
2023-12-20T09:16:52.633Z,2.97
2023-12-20T09:19:22.407Z,2.60
2023-12-20T09:21:52.227Z,2.58
2023-12-20T09:24:24.844Z,2.60
2023-12-20T09:26:54.552Z,2.90
2023-12-20T09:29:24.237Z,3.08
2023-12-20T09:31:53.968Z,3.20
2023-12-20T09:34:23.942Z,2.58
2023-12-20T09:36:53.957Z,2.03
2023-12-20T09:39:26.239Z,2.38
2023-12-20T09:41:59.512Z,2.60
2023-12-20T09:44:29.231Z,2.28
2023-12-20T09:46:59.625Z,2.33
2023-12-20T09:49:31.857Z,2.13
2023-12-20T09:52:01.781Z,2.20
2023-12-20T09:54:34.779Z,1.98
2023-12-20T09:57:04.512Z,2.58
2023-12-20T09:59:34.209Z,2.42
2023-12-20T10:02:05.795Z,2.55
2023-12-20T10:04:36.172Z,2.65
2023-12-20T10:07:07.324Z,2.42
2023-12-20T10:09:40.104Z,2.30
2023-12-20T10:12:10.505Z,1.98
2023-12-20T10:14:40.167Z,2.20
2023-12-20T10:17:10.241Z,2.13
2023-12-20T10:19:40.002Z,1.65
2023-12-20T10:22:09.762Z,2.40
2023-12-20T10:24:42.198Z,2.03
2023-12-20T10:27:12.358Z,2.03
2023-12-20T10:29:42.271Z,2.38
2023-12-20T10:32:27.366Z,2.00
2023-12-20T10:34:58.054Z,2.03
2023-12-20T10:37:27.947Z,1.67
2023-12-20T10:40:01.410Z,1.73
2023-12-20T10:42:31.211Z,1.58
2023-12-20T10:45:01.062Z,1.98
2023-12-20T10:47:31.994Z,1.75
2023-12-20T10:50:03.635Z,1.70
2023-12-20T10:52:34.841Z,2.10
2023-12-20T10:55:07.639Z,1.60
2023-12-20T10:57:40.016Z,1.90
2023-12-20T11:00:12.783Z,2.55
2023-12-20T11:02:43.616Z,1.98
2023-12-20T11:05:17.641Z,1.60
2023-12-20T11:07:51.746Z,2.10
2023-12-20T11:10:26.159Z,1.48
2023-12-20T11:12:57.842Z,1.83
2023-12-20T11:15:29.833Z,1.65
2023-12-20T11:18:00.564Z,1.98
2023-12-20T11:20:39.557Z,1.60
2023-12-20T11:23:09.441Z,1.55
2023-12-20T11:25:53.118Z,1.63
2023-12-20T11:28:25.691Z,2.00
2023-12-20T11:30:56.623Z,1.73
2023-12-20T11:33:28.960Z,2.03
2023-12-20T11:36:01.012Z,1.80
2023-12-20T11:38:30.764Z,1.50
2023-12-20T11:41:05.182Z,1.73
2023-12-20T11:43:35.382Z,1.60
2023-12-20T11:46:09.871Z,1.52
2023-12-20T11:48:41.309Z,1.67
2023-12-20T11:51:14.465Z,1.17
2023-12-20T11:53:44.885Z,1.98
2023-12-20T11:56:17.177Z,1.60
2023-12-20T11:58:48.500Z,1.30
2023-12-20T12:01:19.009Z,1.90
2023-12-20T12:03:48.684Z,1.80
2023-12-20T12:06:18.330Z,1.48
2023-12-20T12:08:47.955Z,2.10
2023-12-20T12:11:20.175Z,1.60
2023-12-20T12:13:49.887Z,1.92
2023-12-20T12:16:21.664Z,1.63
2023-12-20T12:18:59.017Z,1.83
2023-12-20T12:21:33.140Z,1.98
2023-12-20T12:24:13.041Z,2.05
2023-12-20T12:26:45.308Z,2.58
2023-12-20T12:29:15.055Z,1.83
2023-12-20T12:31:44.743Z,1.92
2023-12-20T12:34:14.556Z,2.50
2023-12-20T12:36:45.507Z,1.70
2023-12-20T12:39:16.809Z,1.75
2023-12-20T12:41:49.233Z,1.67
2023-12-20T12:44:19.103Z,2.25
2023-12-20T12:46:51.241Z,1.30
2023-12-20T12:49:21.127Z,1.10
2023-12-20T12:51:50.940Z,2.42
2023-12-20T12:54:20.616Z,1.23
2023-12-20T12:56:54.265Z,1.40
2023-12-20T12:59:24.009Z,1.60
2023-12-20T13:01:54.613Z,1.30
2023-12-20T13:04:24.458Z,1.58
2023-12-20T13:06:54.253Z,1.75
2023-12-20T13:09:23.964Z,2.08
2023-12-20T13:11:58.754Z,1.75
2023-12-20T13:14:28.559Z,1.98
2023-12-20T13:16:58.269Z,2.63
2023-12-20T13:19:27.943Z,2.17
2023-12-20T13:21:57.774Z,2.22
2023-12-20T13:24:27.453Z,2.38
2023-12-20T13:26:59.701Z,3.00
2023-12-20T13:29:30.129Z,1.67
2023-12-20T13:32:00.684Z,1.70
2023-12-20T13:34:30.617Z,1.75
2023-12-20T13:37:00.618Z,1.45
2023-12-20T13:39:31.172Z,1.20
2023-12-20T13:42:03.485Z,2.05
2023-12-20T13:44:33.232Z,1.40
2023-12-20T13:47:02.999Z,1.48
2023-12-20T13:49:32.943Z,2.17
2023-12-20T13:52:05.500Z,1.70
2023-12-20T13:54:35.213Z,1.48
2023-12-20T13:57:12.769Z,1.70
2023-12-20T13:59:51.831Z,2.05
2023-12-20T14:02:21.539Z,2.85
2023-12-20T14:04:51.269Z,1.92
2023-12-20T14:07:22.459Z,2.10
2023-12-20T14:09:52.323Z,2.00
2023-12-20T14:12:25.187Z,1.75
2023-12-20T14:14:57.166Z,1.88
2023-12-20T14:17:26.939Z,2.78
2023-12-20T14:19:56.743Z,2.08
2023-12-20T14:22:26.921Z,1.02
2023-12-20T14:24:58.472Z,2.42
2023-12-20T14:27:31.682Z,2.20
2023-12-20T14:30:01.926Z,2.25
2023-12-20T14:32:31.802Z,1.48
2023-12-20T14:35:02.098Z,1.63
2023-12-20T14:37:31.970Z,1.52
2023-12-20T14:39:59.022Z,1.80
2023-12-20T14:42:31.317Z,1.65
2023-12-20T14:45:01.225Z,1.58
2023-12-20T14:47:30.975Z,1.65
2023-12-20T14:50:00.670Z,1.92
2023-12-20T14:52:30.414Z,1.92
2023-12-20T14:55:00.057Z,1.73
2023-12-20T14:57:32.898Z,1.83
2023-12-20T15:00:02.590Z,1.77
2023-12-20T15:02:32.625Z,1.77
2023-12-20T15:05:02.551Z,2.05
2023-12-20T15:07:32.240Z,1.67
2023-12-20T15:10:02.108Z,1.92
2023-12-20T15:12:35.346Z,1.25
2023-12-20T15:15:05.922Z,2.00
2023-12-20T15:17:36.929Z,2.13
2023-12-20T15:20:07.683Z,1.90
2023-12-20T15:22:38.404Z,2.25
2023-12-20T15:25:10.074Z,2.00
2023-12-20T15:27:42.628Z,2.25
2023-12-20T15:30:13.250Z,2.08
2023-12-20T15:32:43.535Z,1.70
2023-12-20T15:35:13.448Z,1.85
2023-12-20T15:37:43.562Z,2.38
2023-12-20T15:40:14.421Z,1.70
2023-12-20T15:42:47.312Z,2.05
2023-12-20T15:45:17.106Z,2.33
2023-12-20T15:47:47.040Z,2.20
2023-12-20T15:50:18.297Z,2.10
2023-12-20T15:52:48.200Z,2.10
2023-12-20T15:55:17.983Z,1.88
2023-12-20T15:57:54.823Z,1.98
2023-12-20T16:00:25.781Z,1.67
2023-12-20T16:02:55.590Z,2.17
2023-12-20T16:05:25.477Z,2.20
2023-12-20T16:07:55.538Z,2.25
2023-12-20T16:10:25.308Z,2.45
2023-12-20T16:12:57.581Z,2.10
2023-12-20T16:15:27.499Z,2.78
2023-12-20T16:17:57.229Z,2.10
2023-12-20T16:20:27.085Z,2.42
2023-12-20T16:22:56.741Z,1.90
2023-12-20T16:25:26.427Z,2.08
2023-12-20T16:27:58.716Z,2.03
2023-12-20T16:30:29.006Z,1.95
2023-12-20T16:32:58.843Z,2.20
2023-12-20T16:35:28.607Z,1.85
2023-12-20T16:37:58.460Z,2.33
2023-12-20T16:40:28.340Z,2.60
2023-12-20T16:43:01.950Z,2.28
2023-12-20T16:45:31.665Z,1.90
2023-12-20T16:48:01.346Z,2.72
2023-12-20T16:50:31.143Z,1.77
2023-12-20T16:53:00.964Z,1.70
2023-12-20T16:55:30.828Z,2.42
2023-12-20T16:58:06.773Z,2.42
2023-12-20T17:00:36.951Z,2.17
2023-12-20T17:03:07.060Z,2.00
2023-12-20T17:05:36.732Z,2.47
2023-12-20T17:08:06.439Z,2.10
2023-12-20T17:10:36.117Z,2.42
2023-12-20T17:13:08.619Z,2.13
2023-12-20T17:15:39.233Z,2.30
2023-12-20T17:18:09.137Z,2.80
2023-12-20T17:20:38.937Z,1.95
2023-12-20T17:23:08.787Z,2.95
2023-12-20T17:25:40.973Z,2.22
2023-12-20T17:28:13.389Z,2.40
2023-12-20T17:30:45.868Z,2.10
2023-12-20T17:33:17.912Z,1.77
2023-12-20T17:35:48.658Z,1.80
2023-12-20T17:38:18.377Z,1.80
2023-12-20T17:40:48.254Z,2.30
2023-12-20T17:43:20.574Z,1.80
2023-12-20T17:45:51.087Z,2.05
2023-12-20T17:48:22.561Z,1.98
2023-12-20T17:50:52.494Z,2.42
2023-12-20T17:53:22.143Z,2.45
2023-12-20T17:55:51.865Z,2.67
2023-12-20T17:58:24.184Z,1.85
2023-12-20T18:00:54.051Z,2.30
2023-12-20T18:03:23.796Z,1.95
2023-12-20T18:05:53.532Z,2.67
2023-12-20T18:08:23.181Z,1.63
2023-12-20T18:10:52.924Z,2.28
2023-12-20T18:13:25.300Z,2.10
2023-12-20T18:15:55.132Z,2.15
2023-12-20T18:18:25.148Z,2.35
2023-12-20T18:20:55.585Z,1.67
2023-12-20T18:23:25.387Z,2.22
2023-12-20T18:25:56.728Z,3.05
2023-12-20T18:28:29.271Z,2.30
2023-12-20T18:30:59.114Z,2.22
2023-12-20T18:33:28.819Z,2.50
2023-12-20T18:35:58.487Z,1.98
2023-12-20T18:38:31.614Z,2.58
2023-12-20T18:41:01.312Z,2.63
2023-12-20T18:43:33.670Z,2.95
2023-12-20T18:46:04.011Z,2.90
2023-12-20T18:48:34.682Z,2.63
2023-12-20T18:51:05.003Z,2.60
2023-12-20T18:53:34.601Z,2.77
2023-12-20T18:56:04.192Z,2.80
2023-12-20T18:58:36.761Z,2.63
2023-12-20T19:01:06.486Z,1.70
2023-12-20T19:03:36.160Z,2.30
2023-12-20T19:06:06.068Z,2.65
2023-12-20T19:08:37.749Z,2.63
2023-12-20T19:11:08.790Z,2.13
2023-12-20T19:13:41.105Z,2.85
2023-12-20T19:16:10.958Z,2.03
2023-12-20T19:18:40.699Z,2.28
2023-12-20T19:21:10.415Z,2.45
2023-12-20T19:23:44.467Z,2.67
2023-12-20T19:26:14.255Z,2.78
2023-12-20T19:28:47.308Z,2.17
2023-12-20T19:31:17.037Z,2.67
2023-12-20T19:33:51.650Z,2.13
2023-12-20T19:36:21.472Z,2.72
2023-12-20T19:38:51.985Z,2.30
2023-12-20T19:41:21.771Z,2.90
2023-12-20T19:43:54.050Z,3.23
2023-12-20T19:46:23.868Z,2.67
2023-12-20T19:48:53.638Z,2.42
2023-12-20T19:51:24.526Z,2.92
2023-12-20T19:53:54.228Z,2.53
2023-12-20T19:56:24.037Z,2.42
2023-12-20T19:58:57.207Z,1.95
2023-12-20T20:01:27.072Z,2.83
2023-12-20T20:03:56.833Z,2.25
2023-12-20T20:06:26.563Z,2.15
2023-12-20T20:08:56.261Z,2.65
2023-12-20T20:11:32.736Z,2.65
2023-12-20T20:14:08.403Z,2.67
2023-12-20T20:16:38.217Z,1.90
2023-12-20T20:19:07.997Z,2.50
2023-12-20T20:21:38.454Z,2.60
2023-12-20T20:24:08.732Z,2.45
2023-12-20T20:26:38.403Z,2.50
2023-12-20T20:29:10.824Z,2.33
2023-12-20T20:31:41.069Z,2.25
2023-12-20T20:34:10.941Z,2.28
2023-12-20T20:36:40.920Z,1.95
2023-12-20T20:39:11.099Z,2.67
2023-12-20T20:41:40.685Z,1.70
2023-12-20T20:44:13.024Z,2.33
2023-12-20T20:46:42.903Z,1.73
2023-12-20T20:49:12.758Z,2.33
2023-12-20T20:51:42.721Z,2.38
2023-12-20T20:54:18.481Z,2.17
2023-12-20T20:56:49.122Z,2.10
2023-12-20T20:59:21.395Z,2.30
2023-12-20T21:01:51.208Z,2.03
2023-12-20T21:04:21.006Z,2.05
2023-12-20T21:06:51.372Z,2.65
2023-12-20T21:09:20.996Z,2.30
2023-12-20T21:11:50.639Z,2.22
2023-12-20T21:14:22.859Z,2.47
2023-12-20T21:16:52.684Z,2.22
2023-12-20T21:19:24.344Z,2.33
2023-12-20T21:21:55.146Z,2.33
2023-12-20T21:24:24.841Z,2.40
2023-12-20T21:26:54.526Z,4.47
2023-12-20T21:29:26.912Z,3.08
2023-12-20T21:31:56.785Z,2.70
2023-12-20T21:34:26.606Z,2.65
2023-12-20T21:36:58.543Z,2.40
2023-12-20T21:39:30.206Z,2.58
2023-12-20T21:42:00.178Z,2.75
2023-12-20T21:44:32.423Z,2.67
2023-12-20T21:47:02.175Z,2.92
2023-12-20T21:49:31.955Z,2.30
2023-12-20T21:52:01.690Z,2.60
2023-12-20T21:54:31.470Z,1.67
2023-12-20T21:57:03.217Z,1.58
2023-12-20T21:59:36.320Z,2.33
2023-12-20T22:02:08.509Z,2.28
2023-12-20T22:04:38.365Z,2.45
2023-12-20T22:07:08.055Z,1.88
2023-12-20T22:09:37.790Z,2.40
2023-12-20T22:12:07.900Z,1.90
2023-12-20T22:14:40.330Z,1.63
2023-12-20T22:17:10.022Z,2.83
2023-12-20T22:19:39.777Z,1.70
2023-12-20T22:22:09.630Z,1.88
2023-12-20T22:24:39.466Z,1.67
2023-12-20T22:27:10.094Z,2.08
2023-12-20T22:29:42.421Z,1.85
2023-12-20T22:32:12.262Z,2.08
2023-12-20T22:34:41.959Z,2.22
2023-12-20T22:37:11.689Z,2.00
2023-12-20T22:39:41.390Z,2.03
2023-12-20T22:42:11.130Z,2.50
2023-12-20T22:44:44.044Z,2.17
2023-12-20T22:47:11.828Z,2.00
2023-12-20T22:49:41.627Z,2.20
2023-12-20T22:52:11.671Z,2.17
2023-12-20T22:54:41.345Z,2.38
2023-12-20T22:57:11.160Z,1.88
2023-12-20T22:59:43.425Z,2.45
2023-12-20T23:02:15.125Z,2.05
2023-12-20T23:04:44.993Z,1.83
2023-12-20T23:07:14.731Z,1.98
2023-12-20T23:09:44.426Z,2.80
2023-12-20T23:12:14.097Z,2.03
2023-12-20T23:14:46.383Z,2.10
2023-12-20T23:17:16.081Z,2.67
2023-12-20T23:19:46.401Z,1.80
2023-12-20T23:22:16.161Z,2.17
2023-12-20T23:24:47.828Z,1.60
2023-12-20T23:27:17.586Z,1.73
2023-12-20T23:29:49.859Z,1.60
2023-12-20T23:32:20.190Z,1.52
2023-12-20T23:35:00.790Z,1.85
2023-12-20T23:37:38.935Z,1.95
2023-12-20T23:40:09.662Z,1.80
2023-12-20T23:42:39.610Z,1.20
2023-12-20T23:45:12.906Z,1.58
2023-12-20T23:47:42.761Z,1.90
2023-12-20T23:50:12.972Z,1.30
2023-12-20T23:52:42.966Z,1.10
2023-12-20T23:55:13.632Z,1.10
2023-12-20T23:57:44.029Z,1.40
